sensor_id;sensor_type;location;lat;lon;timestamp;P1;durP1;ratioP1;P2;durP2;ratioP2
51746;SDS011;37825;40.088;18.302;2022-07-29T00:00:03;10.57;;;9.55;;
51746;SDS011;37825;40.088;18.302;2022-07-29T00:02:32;10.27;;;9.38;;
51746;SDS011;37825;40.088;18.302;2022-07-29T00:05:01;9.15;;;8.25;;
51746;SDS011;37825;40.088;18.302;2022-07-29T00:07:30;8.75;;;7.93;;
51746;SDS011;37825;40.088;18.302;2022-07-29T00:09:58;10.50;;;9.48;;
51746;SDS011;37825;40.088;18.302;2022-07-29T00:12:26;11.88;;;9.77;;
51746;SDS011;37825;40.088;18.302;2022-07-29T00:14:55;10.45;;;8.40;;
51746;SDS011;37825;40.088;18.302;2022-07-29T00:17:24;11.30;;;8.05;;
51746;SDS011;37825;40.088;18.302;2022-07-29T00:19:53;9.50;;;8.48;;
51746;SDS011;37825;40.088;18.302;2022-07-29T00:22:22;18.30;;;8.68;;
51746;SDS011;37825;40.088;18.302;2022-07-29T00:24:50;9.25;;;8.38;;
51746;SDS011;37825;40.088;18.302;2022-07-29T00:27:18;9.20;;;8.30;;
51746;SDS011;37825;40.088;18.302;2022-07-29T00:29:46;13.55;;;10.45;;
51746;SDS011;37825;40.088;18.302;2022-07-29T00:32:15;12.18;;;11.10;;
51746;SDS011;37825;40.088;18.302;2022-07-29T00:34:43;18.60;;;17.10;;
51746;SDS011;37825;40.088;18.302;2022-07-29T00:37:31;10.75;;;9.85;;
51746;SDS011;37825;40.088;18.302;2022-07-29T00:39:59;8.85;;;7.65;;
51746;SDS011;37825;40.088;18.302;2022-07-29T00:42:27;8.20;;;7.28;;
51746;SDS011;37825;40.088;18.302;2022-07-29T00:44:56;8.93;;;7.55;;
51746;SDS011;37825;40.088;18.302;2022-07-29T00:47:24;9.35;;;8.60;;
51746;SDS011;37825;40.088;18.302;2022-07-29T00:49:53;8.90;;;7.88;;
51746;SDS011;37825;40.088;18.302;2022-07-29T00:52:22;9.35;;;8.18;;
51746;SDS011;37825;40.088;18.302;2022-07-29T00:54:50;9.10;;;8.20;;
51746;SDS011;37825;40.088;18.302;2022-07-29T00:57:19;13.68;;;12.48;;
51746;SDS011;37825;40.088;18.302;2022-07-29T00:59:48;21.52;;;19.55;;
51746;SDS011;37825;40.088;18.302;2022-07-29T01:02:16;15.50;;;12.82;;
51746;SDS011;37825;40.088;18.302;2022-07-29T01:04:44;11.05;;;10.00;;
51746;SDS011;37825;40.088;18.302;2022-07-29T01:07:13;14.43;;;13.23;;
51746;SDS011;37825;40.088;18.302;2022-07-29T01:09:41;15.27;;;13.85;;
51746;SDS011;37825;40.088;18.302;2022-07-29T01:12:10;9.32;;;8.43;;
51746;SDS011;37825;40.088;18.302;2022-07-29T01:14:40;8.88;;;7.90;;
51746;SDS011;37825;40.088;18.302;2022-07-29T01:17:14;9.50;;;8.60;;
51746;SDS011;37825;40.088;18.302;2022-07-29T01:23:18;8.60;;;7.43;;
51746;SDS011;37825;40.088;18.302;2022-07-29T01:30:42;13.27;;;8.52;;
51746;SDS011;37825;40.088;18.302;2022-07-29T01:33:13;10.30;;;7.40;;
51746;SDS011;37825;40.088;18.302;2022-07-29T01:36:06;9.05;;;8.15;;
51746;SDS011;37825;40.088;18.302;2022-07-29T01:38:35;10.70;;;8.93;;
51746;SDS011;37825;40.088;18.302;2022-07-29T01:41:06;9.33;;;8.43;;
51746;SDS011;37825;40.088;18.302;2022-07-29T01:46:06;10.02;;;9.00;;
51746;SDS011;37825;40.088;18.302;2022-07-29T01:48:42;12.43;;;9.38;;
51746;SDS011;37825;40.088;18.302;2022-07-29T01:51:13;9.70;;;8.45;;
51746;SDS011;37825;40.088;18.302;2022-07-29T01:56:18;10.27;;;8.88;;
51746;SDS011;37825;40.088;18.302;2022-07-29T01:58:47;9.93;;;8.82;;
51746;SDS011;37825;40.088;18.302;2022-07-29T02:01:16;9.27;;;8.40;;
51746;SDS011;37825;40.088;18.302;2022-07-29T02:03:45;9.60;;;8.73;;
51746;SDS011;37825;40.088;18.302;2022-07-29T02:06:16;11.90;;;8.98;;
51746;SDS011;37825;40.088;18.302;2022-07-29T02:08:45;8.93;;;8.02;;
51746;SDS011;37825;40.088;18.302;2022-07-29T02:11:15;9.88;;;8.98;;
51746;SDS011;37825;40.088;18.302;2022-07-29T02:13:43;10.32;;;9.43;;
51746;SDS011;37825;40.088;18.302;2022-07-29T02:16:12;11.68;;;10.57;;
51746;SDS011;37825;40.088;18.302;2022-07-29T02:18:42;10.68;;;9.45;;
51746;SDS011;37825;40.088;18.302;2022-07-29T02:21:12;11.52;;;9.75;;
51746;SDS011;37825;40.088;18.302;2022-07-29T02:23:42;11.27;;;9.40;;
51746;SDS011;37825;40.088;18.302;2022-07-29T02:26:13;11.52;;;10.27;;
51746;SDS011;37825;40.088;18.302;2022-07-29T02:28:41;10.77;;;9.73;;
51746;SDS011;37825;40.088;18.302;2022-07-29T02:31:09;10.07;;;9.13;;
51746;SDS011;37825;40.088;18.302;2022-07-29T02:33:39;12.65;;;9.52;;
51746;SDS011;37825;40.088;18.302;2022-07-29T02:36:08;10.40;;;9.45;;
51746;SDS011;37825;40.088;18.302;2022-07-29T02:38:37;10.77;;;9.77;;
51746;SDS011;37825;40.088;18.302;2022-07-29T02:41:29;11.43;;;10.23;;
51746;SDS011;37825;40.088;18.302;2022-07-29T02:44:05;11.55;;;10.45;;
51746;SDS011;37825;40.088;18.302;2022-07-29T02:46:35;12.20;;;11.02;;
51746;SDS011;37825;40.088;18.302;2022-07-29T02:51:40;11.23;;;10.07;;
51746;SDS011;37825;40.088;18.302;2022-07-29T02:54:11;12.10;;;10.93;;
51746;SDS011;37825;40.088;18.302;2022-07-29T02:56:42;12.07;;;10.77;;
51746;SDS011;37825;40.088;18.302;2022-07-29T02:59:12;11.43;;;10.35;;
51746;SDS011;37825;40.088;18.302;2022-07-29T03:01:42;12.60;;;11.00;;
51746;SDS011;37825;40.088;18.302;2022-07-29T03:04:12;11.82;;;10.30;;
51746;SDS011;37825;40.088;18.302;2022-07-29T03:06:40;11.60;;;10.40;;
51746;SDS011;37825;40.088;18.302;2022-07-29T03:09:11;11.35;;;10.20;;
51746;SDS011;37825;40.088;18.302;2022-07-29T03:11:41;11.98;;;10.98;;
51746;SDS011;37825;40.088;18.302;2022-07-29T03:14:09;12.90;;;10.73;;
51746;SDS011;37825;40.088;18.302;2022-07-29T03:16:39;13.55;;;12.35;;
51746;SDS011;37825;40.088;18.302;2022-07-29T03:19:07;13.00;;;11.68;;
51746;SDS011;37825;40.088;18.302;2022-07-29T03:21:35;14.90;;;13.35;;
51746;SDS011;37825;40.088;18.302;2022-07-29T03:24:04;14.88;;;13.38;;
51746;SDS011;37825;40.088;18.302;2022-07-29T03:26:35;14.27;;;12.88;;
51746;SDS011;37825;40.088;18.302;2022-07-29T03:29:04;14.27;;;12.95;;
51746;SDS011;37825;40.088;18.302;2022-07-29T03:31:32;13.35;;;12.02;;
51746;SDS011;37825;40.088;18.302;2022-07-29T03:34:00;14.07;;;11.43;;
51746;SDS011;37825;40.088;18.302;2022-07-29T03:36:29;14.00;;;12.60;;
51746;SDS011;37825;40.088;18.302;2022-07-29T03:38:57;14.35;;;12.07;;
51746;SDS011;37825;40.088;18.302;2022-07-29T03:41:26;12.95;;;11.52;;
51746;SDS011;37825;40.088;18.302;2022-07-29T03:43:54;14.50;;;10.43;;
51746;SDS011;37825;40.088;18.302;2022-07-29T03:46:23;10.40;;;9.40;;
51746;SDS011;37825;40.088;18.302;2022-07-29T03:48:53;11.43;;;9.05;;
51746;SDS011;37825;40.088;18.302;2022-07-29T03:53:51;10.05;;;8.82;;
51746;SDS011;37825;40.088;18.302;2022-07-29T03:56:22;12.23;;;9.00;;
51746;SDS011;37825;40.088;18.302;2022-07-29T03:58:51;9.98;;;8.98;;
51746;SDS011;37825;40.088;18.302;2022-07-29T04:01:21;16.17;;;9.35;;
51746;SDS011;37825;40.088;18.302;2022-07-29T04:03:50;14.77;;;9.93;;
51746;SDS011;37825;40.088;18.302;2022-07-29T04:06:18;9.90;;;8.80;;
51746;SDS011;37825;40.088;18.302;2022-07-29T04:08:47;10.70;;;9.52;;
51746;SDS011;37825;40.088;18.302;2022-07-29T04:11:15;9.07;;;7.32;;
51746;SDS011;37825;40.088;18.302;2022-07-29T04:13:43;11.38;;;8.35;;
51746;SDS011;37825;40.088;18.302;2022-07-29T04:16:12;10.20;;;8.48;;
51746;SDS011;37825;40.088;18.302;2022-07-29T04:18:41;8.98;;;7.88;;
51746;SDS011;37825;40.088;18.302;2022-07-29T04:21:09;13.18;;;7.47;;
51746;SDS011;37825;40.088;18.302;2022-07-29T04:23:37;10.85;;;7.82;;
51746;SDS011;37825;40.088;18.302;2022-07-29T04:26:06;10.68;;;8.05;;
51746;SDS011;37825;40.088;18.302;2022-07-29T04:28:37;9.23;;;6.90;;
51746;SDS011;37825;40.088;18.302;2022-07-29T04:31:06;10.23;;;7.68;;
51746;SDS011;37825;40.088;18.302;2022-07-29T04:33:35;8.73;;;7.38;;
51746;SDS011;37825;40.088;18.302;2022-07-29T04:36:04;10.82;;;8.30;;
51746;SDS011;37825;40.088;18.302;2022-07-29T04:38:32;7.88;;;7.18;;
51746;SDS011;37825;40.088;18.302;2022-07-29T04:41:00;13.02;;;8.40;;
51746;SDS011;37825;40.088;18.302;2022-07-29T04:43:29;8.50;;;7.25;;
51746;SDS011;37825;40.088;18.302;2022-07-29T04:45:57;10.68;;;8.13;;
51746;SDS011;37825;40.088;18.302;2022-07-29T04:48:25;9.38;;;8.05;;
51746;SDS011;37825;40.088;18.302;2022-07-29T04:50:54;7.97;;;6.53;;
51746;SDS011;37825;40.088;18.302;2022-07-29T04:53:23;8.52;;;6.68;;
51746;SDS011;37825;40.088;18.302;2022-07-29T04:55:51;9.27;;;6.30;;
51746;SDS011;37825;40.088;18.302;2022-07-29T04:58:20;8.00;;;7.18;;
51746;SDS011;37825;40.088;18.302;2022-07-29T05:00:50;9.68;;;7.05;;
51746;SDS011;37825;40.088;18.302;2022-07-29T05:03:20;6.78;;;5.57;;
51746;SDS011;37825;40.088;18.302;2022-07-29T05:05:48;9.88;;;6.15;;
51746;SDS011;37825;40.088;18.302;2022-07-29T05:08:16;6.45;;;5.63;;
51746;SDS011;37825;40.088;18.302;2022-07-29T05:10:44;8.52;;;6.20;;
51746;SDS011;37825;40.088;18.302;2022-07-29T05:13:13;6.78;;;5.82;;
51746;SDS011;37825;40.088;18.302;2022-07-29T05:15:41;7.90;;;5.88;;
51746;SDS011;37825;40.088;18.302;2022-07-29T05:18:10;9.43;;;6.60;;
51746;SDS011;37825;40.088;18.302;2022-07-29T05:20:39;7.60;;;6.60;;
51746;SDS011;37825;40.088;18.302;2022-07-29T05:23:07;6.47;;;5.03;;
51746;SDS011;37825;40.088;18.302;2022-07-29T05:25:38;8.00;;;5.38;;
51746;SDS011;37825;40.088;18.302;2022-07-29T05:28:06;8.82;;;5.80;;
51746;SDS011;37825;40.088;18.302;2022-07-29T05:30:34;7.10;;;6.45;;
51746;SDS011;37825;40.088;18.302;2022-07-29T05:33:03;5.85;;;5.35;;
51746;SDS011;37825;40.088;18.302;2022-07-29T05:35:32;5.70;;;3.80;;
51746;SDS011;37825;40.088;18.302;2022-07-29T05:38:03;5.88;;;4.30;;
51746;SDS011;37825;40.088;18.302;2022-07-29T05:40:32;5.22;;;4.72;;
51746;SDS011;37825;40.088;18.302;2022-07-29T05:43:01;7.15;;;5.80;;
51746;SDS011;37825;40.088;18.302;2022-07-29T05:45:29;5.63;;;4.75;;
51746;SDS011;37825;40.088;18.302;2022-07-29T05:47:58;8.27;;;4.70;;
51746;SDS011;37825;40.088;18.302;2022-07-29T05:50:26;5.18;;;4.57;;
51746;SDS011;37825;40.088;18.302;2022-07-29T05:52:55;5.60;;;5.10;;
51746;SDS011;37825;40.088;18.302;2022-07-29T05:55:23;6.07;;;4.78;;
51746;SDS011;37825;40.088;18.302;2022-07-29T05:57:52;4.13;;;3.47;;
51746;SDS011;37825;40.088;18.302;2022-07-29T06:00:20;5.43;;;4.10;;
51746;SDS011;37825;40.088;18.302;2022-07-29T06:02:49;5.13;;;4.47;;
51746;SDS011;37825;40.088;18.302;2022-07-29T06:05:18;7.32;;;4.18;;
51746;SDS011;37825;40.088;18.302;2022-07-29T06:07:46;6.55;;;3.60;;
51746;SDS011;37825;40.088;18.302;2022-07-29T06:10:14;4.72;;;3.67;;
51746;SDS011;37825;40.088;18.302;2022-07-29T06:12:44;4.97;;;4.50;;
51746;SDS011;37825;40.088;18.302;2022-07-29T06:15:13;5.63;;;4.00;;
51746;SDS011;37825;40.088;18.302;2022-07-29T06:17:42;5.20;;;4.07;;
51746;SDS011;37825;40.088;18.302;2022-07-29T06:20:11;4.75;;;3.83;;
51746;SDS011;37825;40.088;18.302;2022-07-29T06:22:41;6.60;;;4.03;;
51746;SDS011;37825;40.088;18.302;2022-07-29T06:25:09;6.45;;;4.22;;
51746;SDS011;37825;40.088;18.302;2022-07-29T06:27:38;6.13;;;4.15;;
51746;SDS011;37825;40.088;18.302;2022-07-29T06:30:07;5.15;;;3.65;;
51746;SDS011;37825;40.088;18.302;2022-07-29T06:32:36;5.55;;;3.38;;
51746;SDS011;37825;40.088;18.302;2022-07-29T06:35:07;4.60;;;3.80;;
51746;SDS011;37825;40.088;18.302;2022-07-29T06:37:51;5.15;;;3.85;;
51746;SDS011;37825;40.088;18.302;2022-07-29T06:40:20;4.03;;;3.47;;
51746;SDS011;37825;40.088;18.302;2022-07-29T06:43:07;5.50;;;3.72;;
51746;SDS011;37825;40.088;18.302;2022-07-29T06:45:35;5.25;;;3.65;;
51746;SDS011;37825;40.088;18.302;2022-07-29T06:48:09;3.88;;;3.10;;
51746;SDS011;37825;40.088;18.302;2022-07-29T06:50:37;7.57;;;3.83;;
51746;SDS011;37825;40.088;18.302;2022-07-29T06:53:06;3.88;;;3.22;;
51746;SDS011;37825;40.088;18.302;2022-07-29T06:55:35;5.50;;;3.95;;
51746;SDS011;37825;40.088;18.302;2022-07-29T06:58:04;7.47;;;3.97;;
51746;SDS011;37825;40.088;18.302;2022-07-29T07:00:34;4.57;;;3.00;;
51746;SDS011;37825;40.088;18.302;2022-07-29T07:03:03;3.28;;;2.97;;
51746;SDS011;37825;40.088;18.302;2022-07-29T07:05:32;3.33;;;2.90;;
51746;SDS011;37825;40.088;18.302;2022-07-29T07:08:00;5.15;;;2.60;;
51746;SDS011;37825;40.088;18.302;2022-07-29T07:10:28;4.88;;;3.47;;
51746;SDS011;37825;40.088;18.302;2022-07-29T07:12:57;4.55;;;3.40;;
51746;SDS011;37825;40.088;18.302;2022-07-29T07:15:26;4.43;;;3.78;;
51746;SDS011;37825;40.088;18.302;2022-07-29T07:17:54;6.43;;;3.00;;
51746;SDS011;37825;40.088;18.302;2022-07-29T07:20:23;5.38;;;3.30;;
51746;SDS011;37825;40.088;18.302;2022-07-29T07:22:52;3.67;;;3.30;;
51746;SDS011;37825;40.088;18.302;2022-07-29T07:25:20;5.90;;;3.50;;
51746;SDS011;37825;40.088;18.302;2022-07-29T07:27:49;4.88;;;2.70;;
51746;SDS011;37825;40.088;18.302;2022-07-29T07:30:17;3.60;;;3.30;;
51746;SDS011;37825;40.088;18.302;2022-07-29T07:32:45;3.13;;;2.75;;
51746;SDS011;37825;40.088;18.302;2022-07-29T07:35:14;4.95;;;3.22;;
51746;SDS011;37825;40.088;18.302;2022-07-29T07:37:43;3.95;;;3.25;;
51746;SDS011;37825;40.088;18.302;2022-07-29T07:40:12;4.63;;;3.55;;
51746;SDS011;37825;40.088;18.302;2022-07-29T07:42:41;10.50;;;4.63;;
51746;SDS011;37825;40.088;18.302;2022-07-29T07:45:09;4.38;;;3.08;;
51746;SDS011;37825;40.088;18.302;2022-07-29T07:47:39;7.17;;;2.90;;
51746;SDS011;37825;40.088;18.302;2022-07-29T07:50:08;7.03;;;2.78;;
51746;SDS011;37825;40.088;18.302;2022-07-29T07:52:52;2.60;;;2.40;;
51746;SDS011;37825;40.088;18.302;2022-07-29T07:55:22;5.03;;;3.28;;
51746;SDS011;37825;40.088;18.302;2022-07-29T07:57:50;6.22;;;2.92;;
51746;SDS011;37825;40.088;18.302;2022-07-29T08:00:19;4.68;;;2.80;;
51746;SDS011;37825;40.088;18.302;2022-07-29T08:02:47;4.85;;;3.13;;
51746;SDS011;37825;40.088;18.302;2022-07-29T08:05:15;4.15;;;3.03;;
51746;SDS011;37825;40.088;18.302;2022-07-29T08:07:47;3.78;;;2.72;;
51746;SDS011;37825;40.088;18.302;2022-07-29T08:10:16;43.60;;;12.00;;
51746;SDS011;37825;40.088;18.302;2022-07-29T08:13:03;4.57;;;3.40;;
51746;SDS011;37825;40.088;18.302;2022-07-29T08:15:32;3.85;;;3.05;;
51746;SDS011;37825;40.088;18.302;2022-07-29T08:18:01;3.05;;;2.53;;
51746;SDS011;37825;40.088;18.302;2022-07-29T08:20:34;2.95;;;2.65;;
51746;SDS011;37825;40.088;18.302;2022-07-29T08:23:03;3.70;;;2.83;;
51746;SDS011;37825;40.088;18.302;2022-07-29T08:25:33;4.85;;;2.83;;
51746;SDS011;37825;40.088;18.302;2022-07-29T08:28:01;3.60;;;2.45;;
51746;SDS011;37825;40.088;18.302;2022-07-29T08:30:29;5.97;;;2.88;;
51746;SDS011;37825;40.088;18.302;2022-07-29T08:33:00;3.35;;;2.25;;
51746;SDS011;37825;40.088;18.302;2022-07-29T08:35:28;2.85;;;2.50;;
51746;SDS011;37825;40.088;18.302;2022-07-29T08:38:00;4.07;;;2.92;;
51746;SDS011;37825;40.088;18.302;2022-07-29T08:40:30;4.33;;;2.83;;
51746;SDS011;37825;40.088;18.302;2022-07-29T08:43:03;3.70;;;2.10;;
51746;SDS011;37825;40.088;18.302;2022-07-29T08:45:45;3.42;;;2.33;;
51746;SDS011;37825;40.088;18.302;2022-07-29T08:48:15;2.70;;;2.38;;
51746;SDS011;37825;40.088;18.302;2022-07-29T08:50:44;5.05;;;2.72;;
51746;SDS011;37825;40.088;18.302;2022-07-29T08:53:15;2.67;;;2.20;;
51746;SDS011;37825;40.088;18.302;2022-07-29T08:55:44;5.82;;;2.80;;
51746;SDS011;37825;40.088;18.302;2022-07-29T08:58:13;5.70;;;3.00;;
51746;SDS011;37825;40.088;18.302;2022-07-29T09:00:46;2.55;;;2.20;;
51746;SDS011;37825;40.088;18.302;2022-07-29T09:03:18;5.35;;;2.10;;
51746;SDS011;37825;40.088;18.302;2022-07-29T09:08:15;3.92;;;2.25;;
51746;SDS011;37825;40.088;18.302;2022-07-29T09:10:44;3.15;;;2.25;;
51746;SDS011;37825;40.088;18.302;2022-07-29T09:13:13;4.00;;;2.30;;
51746;SDS011;37825;40.088;18.302;2022-07-29T09:15:41;3.28;;;2.60;;
51746;SDS011;37825;40.088;18.302;2022-07-29T09:18:10;3.78;;;2.38;;
51746;SDS011;37825;40.088;18.302;2022-07-29T09:20:38;2.42;;;2.22;;
51746;SDS011;37825;40.088;18.302;2022-07-29T09:23:33;5.32;;;2.65;;
51746;SDS011;37825;40.088;18.302;2022-07-29T09:26:05;2.70;;;2.00;;
51746;SDS011;37825;40.088;18.302;2022-07-29T09:28:33;4.07;;;2.45;;
51746;SDS011;37825;40.088;18.302;2022-07-29T09:31:02;3.40;;;1.77;;
51746;SDS011;37825;40.088;18.302;2022-07-29T09:33:31;4.28;;;2.03;;
51746;SDS011;37825;40.088;18.302;2022-07-29T09:36:05;2.65;;;1.98;;
51746;SDS011;37825;40.088;18.302;2022-07-29T09:38:34;6.63;;;2.60;;
51746;SDS011;37825;40.088;18.302;2022-07-29T09:41:04;6.70;;;2.83;;
51746;SDS011;37825;40.088;18.302;2022-07-29T09:43:35;4.40;;;2.53;;
51746;SDS011;37825;40.088;18.302;2022-07-29T09:46:11;9.88;;;3.25;;
51746;SDS011;37825;40.088;18.302;2022-07-29T09:48:40;3.10;;;2.30;;
51746;SDS011;37825;40.088;18.302;2022-07-29T09:51:18;1.77;;;1.67;;
51746;SDS011;37825;40.088;18.302;2022-07-29T09:53:49;7.07;;;2.28;;
51746;SDS011;37825;40.088;18.302;2022-07-29T09:56:18;2.10;;;1.90;;
51746;SDS011;37825;40.088;18.302;2022-07-29T09:58:47;3.03;;;2.33;;
51746;SDS011;37825;40.088;18.302;2022-07-29T10:01:15;4.25;;;2.20;;
51746;SDS011;37825;40.088;18.302;2022-07-29T10:03:50;5.00;;;2.20;;
51746;SDS011;37825;40.088;18.302;2022-07-29T10:06:19;3.28;;;1.88;;
51746;SDS011;37825;40.088;18.302;2022-07-29T10:08:48;2.92;;;2.10;;
51746;SDS011;37825;40.088;18.302;2022-07-29T10:11:17;2.17;;;1.92;;
51746;SDS011;37825;40.088;18.302;2022-07-29T10:13:47;2.00;;;1.85;;
51746;SDS011;37825;40.088;18.302;2022-07-29T10:16:16;3.30;;;1.80;;
51746;SDS011;37825;40.088;18.302;2022-07-29T10:18:44;4.13;;;2.42;;
51746;SDS011;37825;40.088;18.302;2022-07-29T10:21:14;2.28;;;1.90;;
51746;SDS011;37825;40.088;18.302;2022-07-29T10:23:43;5.07;;;2.65;;
51746;SDS011;37825;40.088;18.302;2022-07-29T10:26:13;2.63;;;1.83;;
51746;SDS011;37825;40.088;18.302;2022-07-29T10:28:42;2.28;;;2.08;;
51746;SDS011;37825;40.088;18.302;2022-07-29T10:31:13;2.45;;;1.92;;
51746;SDS011;37825;40.088;18.302;2022-07-29T10:44:23;1.67;;;1.58;;
51746;SDS011;37825;40.088;18.302;2022-07-29T10:46:52;3.35;;;1.73;;
51746;SDS011;37825;40.088;18.302;2022-07-29T10:49:22;3.00;;;1.77;;
51746;SDS011;37825;40.088;18.302;2022-07-29T10:51:54;2.60;;;1.75;;
51746;SDS011;37825;40.088;18.302;2022-07-29T10:54:39;3.80;;;2.03;;
51746;SDS011;37825;40.088;18.302;2022-07-29T10:57:11;3.83;;;1.23;;
51746;SDS011;37825;40.088;18.302;2022-07-29T10:59:41;2.83;;;1.50;;
51746;SDS011;37825;40.088;18.302;2022-07-29T11:05:03;2.88;;;1.80;;
51746;SDS011;37825;40.088;18.302;2022-07-29T11:07:33;3.80;;;1.77;;
51746;SDS011;37825;40.088;18.302;2022-07-29T11:15:10;5.03;;;1.75;;
51746;SDS011;37825;40.088;18.302;2022-07-29T11:28:39;3.03;;;2.22;;
51746;SDS011;37825;40.088;18.302;2022-07-29T11:31:10;2.67;;;1.77;;
51746;SDS011;37825;40.088;18.302;2022-07-29T11:33:39;4.78;;;2.47;;
51746;SDS011;37825;40.088;18.302;2022-07-29T11:36:12;9.55;;;2.75;;
51746;SDS011;37825;40.088;18.302;2022-07-29T11:38:41;1.95;;;1.77;;
51746;SDS011;37825;40.088;18.302;2022-07-29T11:49:07;3.28;;;2.10;;
51746;SDS011;37825;40.088;18.302;2022-07-29T11:51:36;3.70;;;2.15;;
51746;SDS011;37825;40.088;18.302;2022-07-29T11:54:05;3.40;;;1.63;;
51746;SDS011;37825;40.088;18.302;2022-07-29T11:56:33;4.25;;;2.03;;
51746;SDS011;37825;40.088;18.302;2022-07-29T11:59:06;2.35;;;1.48;;
51746;SDS011;37825;40.088;18.302;2022-07-29T12:01:43;3.50;;;1.92;;
51746;SDS011;37825;40.088;18.302;2022-07-29T12:04:25;3.47;;;2.35;;
51746;SDS011;37825;40.088;18.302;2022-07-29T12:06:56;4.70;;;1.85;;
51746;SDS011;37825;40.088;18.302;2022-07-29T12:09:24;4.00;;;1.85;;
51746;SDS011;37825;40.088;18.302;2022-07-29T12:11:56;1.75;;;1.50;;
51746;SDS011;37825;40.088;18.302;2022-07-29T12:14:32;2.22;;;2.00;;
51746;SDS011;37825;40.088;18.302;2022-07-29T12:17:00;2.28;;;1.70;;
51746;SDS011;37825;40.088;18.302;2022-07-29T12:19:28;1.90;;;1.40;;
51746;SDS011;37825;40.088;18.302;2022-07-29T12:22:11;4.97;;;1.70;;
51746;SDS011;37825;40.088;18.302;2022-07-29T12:24:43;2.70;;;1.70;;
51746;SDS011;37825;40.088;18.302;2022-07-29T12:27:11;3.70;;;1.95;;
51746;SDS011;37825;40.088;18.302;2022-07-29T12:29:40;4.28;;;1.90;;
51746;SDS011;37825;40.088;18.302;2022-07-29T12:32:09;2.22;;;1.60;;
51746;SDS011;37825;40.088;18.302;2022-07-29T12:34:38;2.23;;;1.63;;
51746;SDS011;37825;40.088;18.302;2022-07-29T12:37:07;2.88;;;1.65;;
51746;SDS011;37825;40.088;18.302;2022-07-29T12:39:37;3.70;;;2.10;;
51746;SDS011;37825;40.088;18.302;2022-07-29T12:42:13;1.77;;;1.30;;
51746;SDS011;37825;40.088;18.302;2022-07-29T12:44:45;2.38;;;1.67;;
51746;SDS011;37825;40.088;18.302;2022-07-29T12:47:14;6.07;;;2.03;;
51746;SDS011;37825;40.088;18.302;2022-07-29T12:49:43;1.52;;;1.20;;
51746;SDS011;37825;40.088;18.302;2022-07-29T12:52:28;2.30;;;1.53;;
51746;SDS011;37825;40.088;18.302;2022-07-29T12:54:57;3.25;;;1.65;;
51746;SDS011;37825;40.088;18.302;2022-07-29T12:57:25;3.40;;;1.63;;
51746;SDS011;37825;40.088;18.302;2022-07-29T13:00:02;3.67;;;1.50;;
51746;SDS011;37825;40.088;18.302;2022-07-29T13:02:31;3.78;;;1.95;;
51746;SDS011;37825;40.088;18.302;2022-07-29T13:04:59;2.85;;;1.30;;
51746;SDS011;37825;40.088;18.302;2022-07-29T13:07:29;2.22;;;1.55;;
51746;SDS011;37825;40.088;18.302;2022-07-29T13:10:16;3.10;;;1.95;;
51746;SDS011;37825;40.088;18.302;2022-07-29T13:15:39;1.80;;;1.70;;
51746;SDS011;37825;40.088;18.302;2022-07-29T13:20:54;2.67;;;1.80;;
51746;SDS011;37825;40.088;18.302;2022-07-29T13:23:23;3.07;;;1.90;;
51746;SDS011;37825;40.088;18.302;2022-07-29T13:25:51;3.80;;;1.80;;
51746;SDS011;37825;40.088;18.302;2022-07-29T13:28:20;2.55;;;1.38;;
51746;SDS011;37825;40.088;18.302;2022-07-29T13:30:48;3.65;;;2.15;;
51746;SDS011;37825;40.088;18.302;2022-07-29T13:33:16;2.47;;;1.73;;
51746;SDS011;37825;40.088;18.302;2022-07-29T13:35:45;2.20;;;1.67;;
51746;SDS011;37825;40.088;18.302;2022-07-29T13:38:15;4.60;;;1.80;;
51746;SDS011;37825;40.088;18.302;2022-07-29T13:40:44;2.75;;;1.60;;
51746;SDS011;37825;40.088;18.302;2022-07-29T13:43:12;4.07;;;1.75;;
51746;SDS011;37825;40.088;18.302;2022-07-29T13:45:40;2.08;;;1.63;;
51746;SDS011;37825;40.088;18.302;2022-07-29T13:48:09;2.53;;;1.45;;
51746;SDS011;37825;40.088;18.302;2022-07-29T13:50:38;3.45;;;1.60;;
51746;SDS011;37825;40.088;18.302;2022-07-29T13:53:06;2.63;;;1.63;;
51746;SDS011;37825;40.088;18.302;2022-07-29T13:55:34;2.55;;;1.20;;
51746;SDS011;37825;40.088;18.302;2022-07-29T13:58:03;2.03;;;1.50;;
51746;SDS011;37825;40.088;18.302;2022-07-29T14:00:32;3.67;;;1.30;;
51746;SDS011;37825;40.088;18.302;2022-07-29T14:03:00;2.05;;;1.60;;
51746;SDS011;37825;40.088;18.302;2022-07-29T14:05:28;2.50;;;1.35;;
51746;SDS011;37825;40.088;18.302;2022-07-29T14:07:57;1.93;;;1.00;;
51746;SDS011;37825;40.088;18.302;2022-07-29T14:10:26;3.83;;;1.23;;
51746;SDS011;37825;40.088;18.302;2022-07-29T14:12:54;2.72;;;1.92;;
51746;SDS011;37825;40.088;18.302;2022-07-29T14:15:22;2.75;;;1.40;;
51746;SDS011;37825;40.088;18.302;2022-07-29T14:17:51;2.92;;;1.20;;
51746;SDS011;37825;40.088;18.302;2022-07-29T14:20:20;2.25;;;1.25;;
51746;SDS011;37825;40.088;18.302;2022-07-29T14:22:49;2.73;;;1.60;;
51746;SDS011;37825;40.088;18.302;2022-07-29T14:25:17;3.07;;;1.47;;
51746;SDS011;37825;40.088;18.302;2022-07-29T14:27:45;2.60;;;1.48;;
51746;SDS011;37825;40.088;18.302;2022-07-29T14:30:14;4.23;;;1.50;;
51746;SDS011;37825;40.088;18.302;2022-07-29T14:32:42;2.42;;;1.52;;
51746;SDS011;37825;40.088;18.302;2022-07-29T14:35:10;5.47;;;1.30;;
51746;SDS011;37825;40.088;18.302;2022-07-29T14:37:39;1.63;;;1.23;;
51746;SDS011;37825;40.088;18.302;2022-07-29T14:40:08;2.37;;;1.53;;
51746;SDS011;37825;40.088;18.302;2022-07-29T14:42:37;3.78;;;1.38;;
51746;SDS011;37825;40.088;18.302;2022-07-29T14:45:07;3.33;;;0.98;;
51746;SDS011;37825;40.088;18.302;2022-07-29T14:47:36;2.65;;;1.33;;
51746;SDS011;37825;40.088;18.302;2022-07-29T14:50:05;1.50;;;1.23;;
51746;SDS011;37825;40.088;18.302;2022-07-29T14:52:34;4.32;;;1.38;;
51746;SDS011;37825;40.088;18.302;2022-07-29T14:55:03;5.57;;;1.53;;
51746;SDS011;37825;40.088;18.302;2022-07-29T14:57:32;2.35;;;1.17;;
51746;SDS011;37825;40.088;18.302;2022-07-29T15:00:00;6.13;;;1.60;;
51746;SDS011;37825;40.088;18.302;2022-07-29T15:02:30;2.85;;;1.23;;
51746;SDS011;37825;40.088;18.302;2022-07-29T15:05:12;2.72;;;1.25;;
51746;SDS011;37825;40.088;18.302;2022-07-29T15:07:40;2.55;;;1.02;;
51746;SDS011;37825;40.088;18.302;2022-07-29T15:10:09;1.53;;;1.10;;
51746;SDS011;37825;40.088;18.302;2022-07-29T15:12:37;2.03;;;1.27;;
51746;SDS011;37825;40.088;18.302;2022-07-29T15:15:05;3.10;;;1.50;;
51746;SDS011;37825;40.088;18.302;2022-07-29T15:17:34;1.45;;;1.27;;
51746;SDS011;37825;40.088;18.302;2022-07-29T15:20:03;2.25;;;0.90;;
51746;SDS011;37825;40.088;18.302;2022-07-29T15:25:00;3.42;;;2.78;;
51746;SDS011;37825;40.088;18.302;2022-07-29T15:27:28;3.33;;;1.15;;
51746;SDS011;37825;40.088;18.302;2022-07-29T15:29:57;3.10;;;1.23;;
51746;SDS011;37825;40.088;18.302;2022-07-29T15:32:26;3.25;;;1.38;;
51746;SDS011;37825;40.088;18.302;2022-07-29T15:34:55;2.85;;;1.73;;
51746;SDS011;37825;40.088;18.302;2022-07-29T15:37:23;2.97;;;1.63;;
51746;SDS011;37825;40.088;18.302;2022-07-29T15:39:52;1.90;;;1.27;;
51746;SDS011;37825;40.088;18.302;2022-07-29T15:42:23;2.78;;;1.60;;
51746;SDS011;37825;40.088;18.302;2022-07-29T15:44:51;2.30;;;1.27;;
51746;SDS011;37825;40.088;18.302;2022-07-29T15:47:20;2.13;;;1.50;;
51746;SDS011;37825;40.088;18.302;2022-07-29T15:49:48;2.60;;;1.20;;
51746;SDS011;37825;40.088;18.302;2022-07-29T15:52:17;2.42;;;1.23;;